sensor_id;sensor_type;location;lat;lon;timestamp;P1;durP1;ratioP1;P2;durP2;ratioP2
16640;SDS011;8434;47.990;7.880;2023-12-29T00:01:51;3.97;;;2.17;;
16640;SDS011;8434;47.990;7.880;2023-12-29T00:04:36;2.20;;;2.00;;
16640;SDS011;8434;47.990;7.880;2023-12-29T00:07:22;7.00;;;2.60;;
16640;SDS011;8434;47.990;7.880;2023-12-29T00:10:07;2.87;;;1.97;;
16640;SDS011;8434;47.990;7.880;2023-12-29T00:12:53;2.90;;;2.23;;
16640;SDS011;8434;47.990;7.880;2023-12-29T00:15:40;2.20;;;1.70;;
16640;SDS011;8434;47.990;7.880;2023-12-29T00:18:26;3.07;;;2.30;;
16640;SDS011;8434;47.990;7.880;2023-12-29T00:21:11;3.77;;;1.63;;
16640;SDS011;8434;47.990;7.880;2023-12-29T00:23:57;3.13;;;1.87;;
16640;SDS011;8434;47.990;7.880;2023-12-29T00:26:42;2.57;;;1.80;;
16640;SDS011;8434;47.990;7.880;2023-12-29T00:29:27;3.40;;;2.03;;
16640;SDS011;8434;47.990;7.880;2023-12-29T00:32:18;2.10;;;1.70;;
16640;SDS011;8434;47.990;7.880;2023-12-29T00:35:03;3.17;;;1.63;;
16640;SDS011;8434;47.990;7.880;2023-12-29T00:37:49;2.10;;;1.80;;
16640;SDS011;8434;47.990;7.880;2023-12-29T00:40:35;4.40;;;1.40;;
16640;SDS011;8434;47.990;7.880;2023-12-29T00:43:21;2.33;;;1.70;;
16640;SDS011;8434;47.990;7.880;2023-12-29T00:46:07;2.50;;;2.17;;
16640;SDS011;8434;47.990;7.880;2023-12-29T00:48:55;3.50;;;2.13;;
16640;SDS011;8434;47.990;7.880;2023-12-29T00:51:41;2.33;;;2.10;;
16640;SDS011;8434;47.990;7.880;2023-12-29T00:54:26;3.43;;;2.00;;
16640;SDS011;8434;47.990;7.880;2023-12-29T00:57:12;4.10;;;2.07;;
16640;SDS011;8434;47.990;7.880;2023-12-29T00:59:57;2.87;;;2.30;;
16640;SDS011;8434;47.990;7.880;2023-12-29T01:02:42;3.37;;;2.20;;
16640;SDS011;8434;47.990;7.880;2023-12-29T01:05:29;4.17;;;2.30;;
16640;SDS011;8434;47.990;7.880;2023-12-29T01:08:15;3.87;;;2.03;;
16640;SDS011;8434;47.990;7.880;2023-12-29T01:11:00;1.70;;;1.60;;
16640;SDS011;8434;47.990;7.880;2023-12-29T01:13:46;2.60;;;2.13;;
16640;SDS011;8434;47.990;7.880;2023-12-29T01:16:31;2.83;;;2.37;;
16640;SDS011;8434;47.990;7.880;2023-12-29T01:19:17;3.97;;;2.40;;
16640;SDS011;8434;47.990;7.880;2023-12-29T01:22:03;2.63;;;2.00;;
16640;SDS011;8434;47.990;7.880;2023-12-29T01:24:49;5.50;;;2.57;;
16640;SDS011;8434;47.990;7.880;2023-12-29T01:27:34;2.80;;;2.27;;
16640;SDS011;8434;47.990;7.880;2023-12-29T01:30:20;3.20;;;2.80;;
16640;SDS011;8434;47.990;7.880;2023-12-29T01:33:05;7.23;;;3.60;;
16640;SDS011;8434;47.990;7.880;2023-12-29T01:35:51;4.70;;;2.47;;
16640;SDS011;8434;47.990;7.880;2023-12-29T01:38:38;3.47;;;2.60;;
16640;SDS011;8434;47.990;7.880;2023-12-29T01:41:23;4.20;;;2.50;;
16640;SDS011;8434;47.990;7.880;2023-12-29T01:44:17;4.10;;;3.27;;
16640;SDS011;8434;47.990;7.880;2023-12-29T01:47:03;3.87;;;2.47;;
16640;SDS011;8434;47.990;7.880;2023-12-29T01:49:50;2.83;;;1.93;;
16640;SDS011;8434;47.990;7.880;2023-12-29T01:52:35;3.23;;;2.50;;
16640;SDS011;8434;47.990;7.880;2023-12-29T01:55:22;3.73;;;2.53;;
16640;SDS011;8434;47.990;7.880;2023-12-29T01:58:09;4.07;;;2.90;;
16640;SDS011;8434;47.990;7.880;2023-12-29T02:00:54;2.93;;;2.43;;
16640;SDS011;8434;47.990;7.880;2023-12-29T02:03:40;4.80;;;2.67;;
16640;SDS011;8434;47.990;7.880;2023-12-29T02:06:27;3.13;;;2.37;;
16640;SDS011;8434;47.990;7.880;2023-12-29T02:09:12;3.97;;;2.93;;
16640;SDS011;8434;47.990;7.880;2023-12-29T02:12:01;4.03;;;3.00;;
16640;SDS011;8434;47.990;7.880;2023-12-29T02:14:47;3.63;;;2.63;;
16640;SDS011;8434;47.990;7.880;2023-12-29T02:17:36;3.13;;;2.60;;
16640;SDS011;8434;47.990;7.880;2023-12-29T02:20:23;4.70;;;2.80;;
16640;SDS011;8434;47.990;7.880;2023-12-29T02:23:08;4.33;;;3.00;;
16640;SDS011;8434;47.990;7.880;2023-12-29T02:25:56;3.30;;;2.50;;
16640;SDS011;8434;47.990;7.880;2023-12-29T02:28:44;3.20;;;2.90;;
16640;SDS011;8434;47.990;7.880;2023-12-29T02:31:29;4.03;;;2.83;;
16640;SDS011;8434;47.990;7.880;2023-12-29T02:34:16;3.33;;;2.57;;
16640;SDS011;8434;47.990;7.880;2023-12-29T02:37:02;4.20;;;3.27;;
16640;SDS011;8434;47.990;7.880;2023-12-29T02:39:48;2.83;;;2.37;;
16640;SDS011;8434;47.990;7.880;2023-12-29T02:42:35;4.33;;;2.43;;
16640;SDS011;8434;47.990;7.880;2023-12-29T02:45:20;3.60;;;2.80;;
16640;SDS011;8434;47.990;7.880;2023-12-29T02:48:06;5.40;;;3.03;;
16640;SDS011;8434;47.990;7.880;2023-12-29T02:50:52;2.97;;;2.33;;
16640;SDS011;8434;47.990;7.880;2023-12-29T02:53:37;3.47;;;2.43;;
16640;SDS011;8434;47.990;7.880;2023-12-29T02:56:23;4.13;;;2.13;;
16640;SDS011;8434;47.990;7.880;2023-12-29T02:59:09;2.67;;;2.37;;
16640;SDS011;8434;47.990;7.880;2023-12-29T03:01:55;3.60;;;2.40;;
16640;SDS011;8434;47.990;7.880;2023-12-29T03:04:40;2.63;;;2.30;;
16640;SDS011;8434;47.990;7.880;2023-12-29T03:07:25;4.37;;;2.50;;
16640;SDS011;8434;47.990;7.880;2023-12-29T03:10:11;3.80;;;2.37;;
16640;SDS011;8434;47.990;7.880;2023-12-29T03:12:56;4.27;;;1.83;;
16640;SDS011;8434;47.990;7.880;2023-12-29T03:15:43;3.17;;;2.20;;
16640;SDS011;8434;47.990;7.880;2023-12-29T03:18:28;2.77;;;2.57;;
16640;SDS011;8434;47.990;7.880;2023-12-29T03:21:14;2.50;;;2.30;;
16640;SDS011;8434;47.990;7.880;2023-12-29T03:24:00;3.27;;;2.70;;
16640;SDS011;8434;47.990;7.880;2023-12-29T03:26:46;3.57;;;2.37;;
16640;SDS011;8434;47.990;7.880;2023-12-29T03:29:31;4.20;;;2.27;;
16640;SDS011;8434;47.990;7.880;2023-12-29T03:32:18;2.57;;;2.07;;
16640;SDS011;8434;47.990;7.880;2023-12-29T03:35:04;3.30;;;2.83;;
16640;SDS011;8434;47.990;7.880;2023-12-29T03:37:50;2.87;;;2.20;;
16640;SDS011;8434;47.990;7.880;2023-12-29T03:40:35;3.27;;;2.70;;
16640;SDS011;8434;47.990;7.880;2023-12-29T03:43:20;4.77;;;2.57;;
16640;SDS011;8434;47.990;7.880;2023-12-29T03:46:14;3.53;;;2.77;;
16640;SDS011;8434;47.990;7.880;2023-12-29T03:49:01;6.07;;;2.43;;
16640;SDS011;8434;47.990;7.880;2023-12-29T03:51:46;3.17;;;2.23;;
16640;SDS011;8434;47.990;7.880;2023-12-29T03:54:33;2.53;;;2.27;;
16640;SDS011;8434;47.990;7.880;2023-12-29T03:57:18;2.37;;;2.00;;
16640;SDS011;8434;47.990;7.880;2023-12-29T04:00:05;5.60;;;2.80;;
16640;SDS011;8434;47.990;7.880;2023-12-29T04:02:56;3.43;;;1.80;;
16640;SDS011;8434;47.990;7.880;2023-12-29T04:05:43;3.53;;;2.30;;
16640;SDS011;8434;47.990;7.880;2023-12-29T04:08:28;2.23;;;2.00;;
16640;SDS011;8434;47.990;7.880;2023-12-29T04:11:14;2.83;;;2.27;;
16640;SDS011;8434;47.990;7.880;2023-12-29T04:14:00;3.07;;;1.90;;
16640;SDS011;8434;47.990;7.880;2023-12-29T04:16:45;4.20;;;1.90;;
16640;SDS011;8434;47.990;7.880;2023-12-29T04:19:31;2.33;;;1.83;;
16640;SDS011;8434;47.990;7.880;2023-12-29T04:22:18;3.50;;;2.00;;
16640;SDS011;8434;47.990;7.880;2023-12-29T04:25:03;3.00;;;1.80;;
16640;SDS011;8434;47.990;7.880;2023-12-29T04:27:49;5.23;;;2.20;;
16640;SDS011;8434;47.990;7.880;2023-12-29T04:30:35;3.43;;;1.83;;
16640;SDS011;8434;47.990;7.880;2023-12-29T04:33:21;2.43;;;1.87;;
16640;SDS011;8434;47.990;7.880;2023-12-29T04:36:08;2.43;;;2.00;;
16640;SDS011;8434;47.990;7.880;2023-12-29T04:38:54;3.03;;;2.37;;
16640;SDS011;8434;47.990;7.880;2023-12-29T04:41:40;4.90;;;2.30;;
16640;SDS011;8434;47.990;7.880;2023-12-29T04:44:25;2.37;;;1.70;;
16640;SDS011;8434;47.990;7.880;2023-12-29T04:47:11;3.63;;;2.07;;
16640;SDS011;8434;47.990;7.880;2023-12-29T04:49:56;2.27;;;2.03;;
16640;SDS011;8434;47.990;7.880;2023-12-29T04:52:42;2.23;;;1.83;;
16640;SDS011;8434;47.990;7.880;2023-12-29T04:55:29;2.77;;;1.80;;
16640;SDS011;8434;47.990;7.880;2023-12-29T04:58:14;2.73;;;1.80;;
16640;SDS011;8434;47.990;7.880;2023-12-29T05:01:00;2.93;;;2.60;;
16640;SDS011;8434;47.990;7.880;2023-12-29T05:03:45;4.17;;;2.23;;
16640;SDS011;8434;47.990;7.880;2023-12-29T05:06:31;2.57;;;1.83;;
16640;SDS011;8434;47.990;7.880;2023-12-29T05:09:16;2.53;;;1.93;;
16640;SDS011;8434;47.990;7.880;2023-12-29T05:12:03;2.80;;;1.80;;
16640;SDS011;8434;47.990;7.880;2023-12-29T05:14:49;2.57;;;1.73;;
16640;SDS011;8434;47.990;7.880;2023-12-29T05:17:34;2.63;;;1.90;;
16640;SDS011;8434;47.990;7.880;2023-12-29T05:20:20;3.40;;;2.37;;
16640;SDS011;8434;47.990;7.880;2023-12-29T05:23:05;2.20;;;1.70;;
16640;SDS011;8434;47.990;7.880;2023-12-29T05:25:51;2.13;;;1.70;;
16640;SDS011;8434;47.990;7.880;2023-12-29T05:28:38;1.90;;;1.60;;
16640;SDS011;8434;47.990;7.880;2023-12-29T05:31:23;3.57;;;2.00;;
16640;SDS011;8434;47.990;7.880;2023-12-29T05:34:08;2.53;;;2.03;;
16640;SDS011;8434;47.990;7.880;2023-12-29T05:36:54;1.80;;;1.40;;
16640;SDS011;8434;47.990;7.880;2023-12-29T05:39:41;2.13;;;1.60;;
16640;SDS011;8434;47.990;7.880;2023-12-29T05:42:26;2.10;;;1.80;;
16640;SDS011;8434;47.990;7.880;2023-12-29T05:45:13;1.53;;;1.43;;
16640;SDS011;8434;47.990;7.880;2023-12-29T05:48:00;3.43;;;1.80;;
16640;SDS011;8434;47.990;7.880;2023-12-29T05:50:46;1.70;;;1.60;;
16640;SDS011;8434;47.990;7.880;2023-12-29T05:53:31;4.27;;;2.17;;
16640;SDS011;8434;47.990;7.880;2023-12-29T05:56:17;1.80;;;1.50;;
16640;SDS011;8434;47.990;7.880;2023-12-29T05:59:03;3.00;;;2.10;;
16640;SDS011;8434;47.990;7.880;2023-12-29T06:01:50;2.93;;;1.60;;
16640;SDS011;8434;47.990;7.880;2023-12-29T06:04:35;1.90;;;1.77;;
16640;SDS011;8434;47.990;7.880;2023-12-29T06:07:20;5.93;;;2.07;;
16640;SDS011;8434;47.990;7.880;2023-12-29T06:10:06;2.27;;;1.87;;
16640;SDS011;8434;47.990;7.880;2023-12-29T06:12:53;2.40;;;2.00;;
16640;SDS011;8434;47.990;7.880;2023-12-29T06:15:39;2.20;;;1.90;;
16640;SDS011;8434;47.990;7.880;2023-12-29T06:18:25;1.67;;;1.57;;
16640;SDS011;8434;47.990;7.880;2023-12-29T06:21:11;2.03;;;1.73;;
16640;SDS011;8434;47.990;7.880;2023-12-29T06:23:56;1.67;;;1.57;;
16640;SDS011;8434;47.990;7.880;2023-12-29T06:26:42;2.10;;;1.53;;
16640;SDS011;8434;47.990;7.880;2023-12-29T06:29:28;2.27;;;2.07;;
16640;SDS011;8434;47.990;7.880;2023-12-29T06:32:13;2.87;;;2.00;;
16640;SDS011;8434;47.990;7.880;2023-12-29T06:35:00;1.80;;;1.40;;
16640;SDS011;8434;47.990;7.880;2023-12-29T06:37:46;1.97;;;1.77;;
16640;SDS011;8434;47.990;7.880;2023-12-29T06:40:31;2.53;;;1.40;;
16640;SDS011;8434;47.990;7.880;2023-12-29T06:43:17;1.93;;;1.50;;
16640;SDS011;8434;47.990;7.880;2023-12-29T06:46:02;2.10;;;1.73;;
16640;SDS011;8434;47.990;7.880;2023-12-29T06:48:48;3.50;;;1.70;;
16640;SDS011;8434;47.990;7.880;2023-12-29T06:51:35;3.07;;;1.73;;
16640;SDS011;8434;47.990;7.880;2023-12-29T06:54:23;3.20;;;1.90;;
16640;SDS011;8434;47.990;7.880;2023-12-29T06:57:08;4.73;;;1.87;;
16640;SDS011;8434;47.990;7.880;2023-12-29T06:59:54;3.00;;;1.80;;
16640;SDS011;8434;47.990;7.880;2023-12-29T07:02:39;2.70;;;2.43;;
16640;SDS011;8434;47.990;7.880;2023-12-29T07:05:25;1.63;;;1.40;;
16640;SDS011;8434;47.990;7.880;2023-12-29T07:08:13;2.40;;;1.60;;
16640;SDS011;8434;47.990;7.880;2023-12-29T07:10:59;1.67;;;1.57;;
16640;SDS011;8434;47.990;7.880;2023-12-29T07:13:45;2.53;;;1.93;;
16640;SDS011;8434;47.990;7.880;2023-12-29T07:16:30;1.83;;;1.57;;
16640;SDS011;8434;47.990;7.880;2023-12-29T07:19:15;3.13;;;2.00;;
16640;SDS011;8434;47.990;7.880;2023-12-29T07:22:01;2.43;;;1.60;;
16640;SDS011;8434;47.990;7.880;2023-12-29T07:24:48;1.73;;;1.63;;
16640;SDS011;8434;47.990;7.880;2023-12-29T07:27:33;2.77;;;1.80;;
16640;SDS011;8434;47.990;7.880;2023-12-29T07:30:19;1.77;;;1.60;;
16640;SDS011;8434;47.990;7.880;2023-12-29T07:33:04;2.73;;;1.93;;
16640;SDS011;8434;47.990;7.880;2023-12-29T07:35:49;2.73;;;1.50;;
16640;SDS011;8434;47.990;7.880;2023-12-29T07:38:35;2.07;;;1.50;;
16640;SDS011;8434;47.990;7.880;2023-12-29T07:41:21;1.87;;;1.40;;
16640;SDS011;8434;47.990;7.880;2023-12-29T07:44:07;1.97;;;1.60;;
16640;SDS011;8434;47.990;7.880;2023-12-29T07:46:52;1.90;;;1.50;;
16640;SDS011;8434;47.990;7.880;2023-12-29T07:49:38;1.70;;;1.10;;
16640;SDS011;8434;47.990;7.880;2023-12-29T07:52:23;1.67;;;1.17;;
16640;SDS011;8434;47.990;7.880;2023-12-29T07:55:09;2.10;;;1.03;;
16640;SDS011;8434;47.990;7.880;2023-12-29T07:57:55;1.40;;;1.20;;
16640;SDS011;8434;47.990;7.880;2023-12-29T08:00:41;1.60;;;1.20;;
16640;SDS011;8434;47.990;7.880;2023-12-29T08:03:27;1.40;;;1.10;;
16640;SDS011;8434;47.990;7.880;2023-12-29T08:06:12;1.70;;;1.23;;
16640;SDS011;8434;47.990;7.880;2023-12-29T08:08:58;1.23;;;1.13;;
16640;SDS011;8434;47.990;7.880;2023-12-29T08:11:43;1.27;;;1.10;;
16640;SDS011;8434;47.990;7.880;2023-12-29T08:14:30;1.80;;;1.27;;
16640;SDS011;8434;47.990;7.880;2023-12-29T08:17:16;1.40;;;1.00;;
16640;SDS011;8434;47.990;7.880;2023-12-29T08:20:02;1.57;;;1.27;;
16640;SDS011;8434;47.990;7.880;2023-12-29T08:22:47;1.37;;;1.13;;
16640;SDS011;8434;47.990;7.880;2023-12-29T08:25:33;1.30;;;1.20;;
16640;SDS011;8434;47.990;7.880;2023-12-29T08:28:21;1.37;;;1.23;;
16640;SDS011;8434;47.990;7.880;2023-12-29T08:31:07;1.33;;;1.20;;
16640;SDS011;8434;47.990;7.880;2023-12-29T08:33:53;1.10;;;1.00;;
16640;SDS011;8434;47.990;7.880;2023-12-29T08:36:38;1.73;;;1.30;;
16640;SDS011;8434;47.990;7.880;2023-12-29T08:39:24;1.33;;;1.23;;
16640;SDS011;8434;47.990;7.880;2023-12-29T08:42:09;2.23;;;1.33;;
16640;SDS011;8434;47.990;7.880;2023-12-29T08:44:55;3.03;;;1.40;;
16640;SDS011;8434;47.990;7.880;2023-12-29T08:47:42;1.27;;;1.17;;
16640;SDS011;8434;47.990;7.880;2023-12-29T08:50:27;1.90;;;1.20;;
16640;SDS011;8434;47.990;7.880;2023-12-29T08:53:12;1.70;;;1.57;;
16640;SDS011;8434;47.990;7.880;2023-12-29T08:55:59;1.33;;;1.23;;
16640;SDS011;8434;47.990;7.880;2023-12-29T08:58:45;1.73;;;1.37;;
16640;SDS011;8434;47.990;7.880;2023-12-29T09:01:31;1.50;;;1.10;;
16640;SDS011;8434;47.990;7.880;2023-12-29T09:04:19;2.40;;;1.23;;
16640;SDS011;8434;47.990;7.880;2023-12-29T09:07:04;2.50;;;0.90;;
16640;SDS011;8434;47.990;7.880;2023-12-29T09:09:50;1.50;;;1.20;;
16640;SDS011;8434;47.990;7.880;2023-12-29T09:12:35;1.47;;;1.20;;
16640;SDS011;8434;47.990;7.880;2023-12-29T09:15:21;1.07;;;0.90;;
16640;SDS011;8434;47.990;7.880;2023-12-29T09:18:06;1.47;;;0.90;;
16640;SDS011;8434;47.990;7.880;2023-12-29T09:20:53;2.00;;;1.37;;
16640;SDS011;8434;47.990;7.880;2023-12-29T09:23:39;1.73;;;1.30;;
16640;SDS011;8434;47.990;7.880;2023-12-29T09:26:24;1.47;;;1.10;;
16640;SDS011;8434;47.990;7.880;2023-12-29T09:29:10;1.10;;;1.00;;
16640;SDS011;8434;47.990;7.880;2023-12-29T09:31:55;1.47;;;1.37;;
16640;SDS011;8434;47.990;7.880;2023-12-29T09:34:41;2.00;;;1.00;;
16640;SDS011;8434;47.990;7.880;2023-12-29T09:37:27;2.03;;;1.00;;
16640;SDS011;8434;47.990;7.880;2023-12-29T09:40:12;4.37;;;1.33;;
16640;SDS011;8434;47.990;7.880;2023-12-29T09:42:58;1.37;;;0.90;;
16640;SDS011;8434;47.990;7.880;2023-12-29T09:45:44;1.20;;;1.10;;
16640;SDS011;8434;47.990;7.880;2023-12-29T09:48:30;1.60;;;1.03;;
16640;SDS011;8434;47.990;7.880;2023-12-29T09:51:17;1.40;;;1.00;;
16640;SDS011;8434;47.990;7.880;2023-12-29T09:54:07;1.50;;;1.10;;
16640;SDS011;8434;47.990;7.880;2023-12-29T09:56:53;1.57;;;1.47;;
16640;SDS011;8434;47.990;7.880;2023-12-29T09:59:39;1.30;;;1.10;;
16640;SDS011;8434;47.990;7.880;2023-12-29T10:02:26;1.80;;;1.40;;
16640;SDS011;8434;47.990;7.880;2023-12-29T10:05:11;1.60;;;1.20;;
16640;SDS011;8434;47.990;7.880;2023-12-29T10:07:56;1.70;;;1.20;;
16640;SDS011;8434;47.990;7.880;2023-12-29T10:10:47;2.17;;;1.30;;
16640;SDS011;8434;47.990;7.880;2023-12-29T10:13:34;1.27;;;1.13;;
16640;SDS011;8434;47.990;7.880;2023-12-29T10:16:22;1.50;;;1.10;;
16640;SDS011;8434;47.990;7.880;2023-12-29T10:19:10;1.73;;;1.27;;
16640;SDS011;8434;47.990;7.880;2023-12-29T10:22:02;1.97;;;1.17;;
16640;SDS011;8434;47.990;7.880;2023-12-29T10:24:48;1.47;;;1.00;;
16640;SDS011;8434;47.990;7.880;2023-12-29T10:27:36;1.67;;;1.20;;
16640;SDS011;8434;47.990;7.880;2023-12-29T10:30:21;2.80;;;1.07;;
16640;SDS011;8434;47.990;7.880;2023-12-29T10:33:07;1.97;;;1.40;;
16640;SDS011;8434;47.990;7.880;2023-12-29T10:35:56;1.10;;;1.00;;
16640;SDS011;8434;47.990;7.880;2023-12-29T10:38:43;1.37;;;1.00;;
16640;SDS011;8434;47.990;7.880;2023-12-29T10:41:28;1.13;;;0.93;;
16640;SDS011;8434;47.990;7.880;2023-12-29T10:44:15;1.60;;;1.00;;
16640;SDS011;8434;47.990;7.880;2023-12-29T10:47:07;0.80;;;0.80;;
16640;SDS011;8434;47.990;7.880;2023-12-29T10:49:52;3.53;;;1.10;;
16640;SDS011;8434;47.990;7.880;2023-12-29T10:52:43;1.87;;;1.27;;
16640;SDS011;8434;47.990;7.880;2023-12-29T10:55:31;1.33;;;0.90;;
16640;SDS011;8434;47.990;7.880;2023-12-29T10:58:16;1.47;;;1.10;;
16640;SDS011;8434;47.990;7.880;2023-12-29T11:01:04;1.47;;;0.90;;
16640;SDS011;8434;47.990;7.880;2023-12-29T11:03:59;1.20;;;0.90;;
16640;SDS011;8434;47.990;7.880;2023-12-29T11:06:45;3.07;;;1.40;;
16640;SDS011;8434;47.990;7.880;2023-12-29T11:09:31;1.40;;;1.27;;
16640;SDS011;8434;47.990;7.880;2023-12-29T11:12:17;1.70;;;1.43;;
16640;SDS011;8434;47.990;7.880;2023-12-29T11:15:03;1.30;;;1.10;;
16640;SDS011;8434;47.990;7.880;2023-12-29T11:17:50;2.20;;;1.40;;
16640;SDS011;8434;47.990;7.880;2023-12-29T11:20:36;2.03;;;1.30;;
16640;SDS011;8434;47.990;7.880;2023-12-29T11:23:22;1.90;;;1.43;;
16640;SDS011;8434;47.990;7.880;2023-12-29T11:26:07;3.43;;;1.20;;
16640;SDS011;8434;47.990;7.880;2023-12-29T11:28:53;2.90;;;1.43;;
16640;SDS011;8434;47.990;7.880;2023-12-29T11:31:39;2.57;;;1.50;;
16640;SDS011;8434;47.990;7.880;2023-12-29T11:34:29;1.73;;;1.20;;
16640;SDS011;8434;47.990;7.880;2023-12-29T11:37:18;2.40;;;1.23;;
16640;SDS011;8434;47.990;7.880;2023-12-29T11:40:10;1.00;;;0.90;;
16640;SDS011;8434;47.990;7.880;2023-12-29T11:42:59;1.93;;;1.40;;
16640;SDS011;8434;47.990;7.880;2023-12-29T11:45:47;1.10;;;0.83;;
16640;SDS011;8434;47.990;7.880;2023-12-29T11:51:39;1.97;;;1.37;;
16640;SDS011;8434;47.990;7.880;2023-12-29T11:54:25;1.97;;;1.30;;
16640;SDS011;8434;47.990;7.880;2023-12-29T11:57:11;1.87;;;0.90;;
16640;SDS011;8434;47.990;7.880;2023-12-29T11:59:56;2.00;;;1.00;;
16640;SDS011;8434;47.990;7.880;2023-12-29T12:02:42;2.43;;;0.97;;
16640;SDS011;8434;47.990;7.880;2023-12-29T12:08:29;2.37;;;1.27;;
16640;SDS011;8434;47.990;7.880;2023-12-29T12:17:27;2.70;;;1.10;;
16640;SDS011;8434;47.990;7.880;2023-12-29T12:20:13;0.90;;;0.80;;
16640;SDS011;8434;47.990;7.880;2023-12-29T12:22:59;1.40;;;1.27;;
16640;SDS011;8434;47.990;7.880;2023-12-29T12:25:46;1.10;;;1.00;;
16640;SDS011;8434;47.990;7.880;2023-12-29T12:28:31;1.53;;;1.00;;
16640;SDS011;8434;47.990;7.880;2023-12-29T12:31:17;1.73;;;1.50;;
16640;SDS011;8434;47.990;7.880;2023-12-29T12:34:02;1.33;;;1.23;;
16640;SDS011;8434;47.990;7.880;2023-12-29T12:36:49;2.07;;;1.30;;
16640;SDS011;8434;47.990;7.880;2023-12-29T12:39:38;2.37;;;1.50;;
16640;SDS011;8434;47.990;7.880;2023-12-29T12:42:25;1.53;;;1.40;;
16640;SDS011;8434;47.990;7.880;2023-12-29T12:45:11;1.67;;;1.30;;
16640;SDS011;8434;47.990;7.880;2023-12-29T12:48:00;5.97;;;2.13;;
16640;SDS011;8434;47.990;7.880;2023-12-29T12:50:47;1.60;;;1.30;;
16640;SDS011;8434;47.990;7.880;2023-12-29T12:53:33;1.50;;;1.40;;
16640;SDS011;8434;47.990;7.880;2023-12-29T12:56:19;1.30;;;1.17;;
16640;SDS011;8434;47.990;7.880;2023-12-29T12:59:06;1.43;;;1.33;;
16640;SDS011;8434;47.990;7.880;2023-12-29T13:01:52;1.17;;;1.07;;
16640;SDS011;8434;47.990;7.880;2023-12-29T13:04:39;5.37;;;1.87;;
16640;SDS011;8434;47.990;7.880;2023-12-29T13:07:25;1.63;;;1.37;;
16640;SDS011;8434;47.990;7.880;2023-12-29T13:10:10;1.53;;;1.43;;
16640;SDS011;8434;47.990;7.880;2023-12-29T13:12:56;2.20;;;1.37;;
16640;SDS011;8434;47.990;7.880;2023-12-29T13:15:46;1.53;;;1.10;;
16640;SDS011;8434;47.990;7.880;2023-12-29T13:18:32;1.63;;;1.40;;
16640;SDS011;8434;47.990;7.880;2023-12-29T13:21:18;4.77;;;1.60;;
16640;SDS011;8434;47.990;7.880;2023-12-29T13:24:03;2.20;;;1.40;;
16640;SDS011;8434;47.990;7.880;2023-12-29T13:26:51;2.17;;;1.47;;
16640;SDS011;8434;47.990;7.880;2023-12-29T13:29:37;1.97;;;1.40;;
16640;SDS011;8434;47.990;7.880;2023-12-29T13:32:25;2.57;;;1.53;;
16640;SDS011;8434;47.990;7.880;2023-12-29T13:35:17;1.87;;;1.40;;
16640;SDS011;8434;47.990;7.880;2023-12-29T13:38:05;2.43;;;1.50;;
16640;SDS011;8434;47.990;7.880;2023-12-29T13:40:54;2.30;;;1.17;;
16640;SDS011;8434;47.990;7.880;2023-12-29T13:43:42;1.60;;;1.37;;
16640;SDS011;8434;47.990;7.880;2023-12-29T13:46:29;1.90;;;1.70;;
16640;SDS011;8434;47.990;7.880;2023-12-29T13:49:17;3.43;;;1.80;;
16640;SDS011;8434;47.990;7.880;2023-12-29T13:52:02;2.07;;;1.40;;
16640;SDS011;8434;47.990;7.880;2023-12-29T13:54:48;1.67;;;1.37;;
16640;SDS011;8434;47.990;7.880;2023-12-29T13:57:34;4.23;;;1.80;;
16640;SDS011;8434;47.990;7.880;2023-12-29T14:00:20;2.43;;;1.80;;
16640;SDS011;8434;47.990;7.880;2023-12-29T14:03:06;2.10;;;1.30;;
16640;SDS011;8434;47.990;7.880;2023-12-29T14:05:55;3.80;;;2.33;;
16640;SDS011;8434;47.990;7.880;2023-12-29T14:08:41;1.73;;;1.50;;
16640;SDS011;8434;47.990;7.880;2023-12-29T14:11:29;3.00;;;2.20;;
16640;SDS011;8434;47.990;7.880;2023-12-29T14:14:21;1.53;;;1.30;;
16640;SDS011;8434;47.990;7.880;2023-12-29T14:17:06;2.60;;;1.50;;
16640;SDS011;8434;47.990;7.880;2023-12-29T14:19:54;1.30;;;1.20;;
16640;SDS011;8434;47.990;7.880;2023-12-29T14:22:46;2.40;;;1.80;;
16640;SDS011;8434;47.990;7.880;2023-12-29T14:25:32;2.30;;;1.57;;
16640;SDS011;8434;47.990;7.880;2023-12-29T14:28:20;2.77;;;1.70;;
16640;SDS011;8434;47.990;7.880;2023-12-29T14:31:05;3.40;;;1.40;;
16640;SDS011;8434;47.990;7.880;2023-12-29T14:33:51;2.07;;;1.40;;
16640;SDS011;8434;47.990;7.880;2023-12-29T14:36:37;1.67;;;1.50;;
16640;SDS011;8434;47.990;7.880;2023-12-29T14:39:24;2.37;;;1.47;;
16640;SDS011;8434;47.990;7.880;2023-12-29T14:42:09;2.03;;;1.67;;
16640;SDS011;8434;47.990;7.880;2023-12-29T14:44:54;1.97;;;1.60;;
16640;SDS011;8434;47.990;7.880;2023-12-29T14:47:40;2.90;;;1.70;;
16640;SDS011;8434;47.990;7.880;2023-12-29T14:50:25;2.03;;;1.63;;
16640;SDS011;8434;47.990;7.880;2023-12-29T14:53:11;2.50;;;1.63;;
16640;SDS011;8434;47.990;7.880;2023-12-29T14:55:58;2.60;;;1.33;;
16640;SDS011;8434;47.990;7.880;2023-12-29T14:58:43;2.47;;;1.90;;
16640;SDS011;8434;47.990;7.880;2023-12-29T15:01:29;2.50;;;1.60;;
16640;SDS011;8434;47.990;7.880;2023-12-29T15:04:15;2.60;;;1.87;;
16640;SDS011;8434;47.990;7.880;2023-12-29T15:07:01;3.03;;;1.90;;
16640;SDS011;8434;47.990;7.880;2023-12-29T15:09:46;2.70;;;1.70;;
16640;SDS011;8434;47.990;7.880;2023-12-29T15:12:33;2.27;;;1.93;;
16640;SDS011;8434;47.990;7.880;2023-12-29T15:15:18;2.30;;;1.77;;
16640;SDS011;8434;47.990;7.880;2023-12-29T15:18:05;2.17;;;1.60;;
16640;SDS011;8434;47.990;7.880;2023-12-29T15:20:50;2.40;;;1.67;;
16640;SDS011;8434;47.990;7.880;2023-12-29T15:23:36;2.93;;;1.90;;
16640;SDS011;8434;47.990;7.880;2023-12-29T15:26:22;5.00;;;1.93;;
16640;SDS011;8434;47.990;7.880;2023-12-29T15:29:08;1.97;;;1.80;;
16640;SDS011;8434;47.990;7.880;2023-12-29T15:31:54;2.20;;;1.70;;
16640;SDS011;8434;47.990;7.880;2023-12-29T15:34:39;3.37;;;1.80;;
16640;SDS011;8434;47.990;7.880;2023-12-29T15:37:25;2.97;;;1.97;;
16640;SDS011;8434;47.990;7.880;2023-12-29T15:40:11;2.13;;;1.70;;
16640;SDS011;8434;47.990;7.880;2023-12-29T15:42:56;2.10;;;1.63;;
16640;SDS011;8434;47.990;7.880;2023-12-29T15:45:43;2.83;;;1.60;;
16640;SDS011;8434;47.990;7.880;2023-12-29T15:48:29;4.17;;;1.83;;
16640;SDS011;8434;47.990;7.880;2023-12-29T15:51:14;3.17;;;1.60;;
16640;SDS011;8434;47.990;7.880;2023-12-29T15:54:00;2.43;;;1.90;;
16640;SDS011;8434;47.990;7.880;2023-12-29T15:56:45;2.97;;;1.90;;
16640;SDS011;8434;47.990;7.880;2023-12-29T15:59:31;1.97;;;1.77;;
16640;SDS011;8434;47.990;7.880;2023-12-29T16:02:18;1.77;;;1.50;;
16640;SDS011;8434;47.990;7.880;2023-12-29T16:05:04;1.67;;;1.47;;
16640;SDS011;8434;47.990;7.880;2023-12-29T16:07:50;2.80;;;1.67;;
16640;SDS011;8434;47.990;7.880;2023-12-29T16:10:35;2.23;;;1.63;;
16640;SDS011;8434;47.990;7.880;2023-12-29T16:13:21;1.80;;;1.53;;
16640;SDS011;8434;47.990;7.880;2023-12-29T16:16:06;2.43;;;1.70;;
16640;SDS011;8434;47.990;7.880;2023-12-29T16:18:53;2.27;;;1.90;;
16640;SDS011;8434;47.990;7.880;2023-12-29T16:21:38;0.80;;;0.80;;
16640;SDS011;8434;47.990;7.880;2023-12-29T16:24:25;3.23;;;1.90;;
16640;SDS011;8434;47.990;7.880;2023-12-29T16:27:11;2.20;;;1.47;;
16640;SDS011;8434;47.990;7.880;2023-12-29T16:29:57;1.47;;;1.20;;
16640;SDS011;8434;47.990;7.880;2023-12-29T16:32:42;2.77;;;1.40;;
16640;SDS011;8434;47.990;7.880;2023-12-29T16:35:29;1.60;;;1.50;;
16640;SDS011;8434;47.990;7.880;2023-12-29T16:38:14;2.07;;;1.47;;
16640;SDS011;8434;47.990;7.880;2023-12-29T16:41:01;2.33;;;1.63;;
16640;SDS011;8434;47.990;7.880;2023-12-29T16:43:47;2.77;;;1.77;;
16640;SDS011;8434;47.990;7.880;2023-12-29T16:46:32;3.00;;;1.50;;
16640;SDS011;8434;47.990;7.880;2023-12-29T16:49:18;3.73;;;1.50;;
16640;SDS011;8434;47.990;7.880;2023-12-29T16:52:06;2.60;;;1.50;;
16640;SDS011;8434;47.990;7.880;2023-12-29T16:54:51;2.40;;;1.60;;
16640;SDS011;8434;47.990;7.880;2023-12-29T16:57:36;2.30;;;1.57;;
16640;SDS011;8434;47.990;7.880;2023-12-29T17:00:22;1.77;;;1.13;;
16640;SDS011;8434;47.990;7.880;2023-12-29T17:03:07;1.60;;;1.37;;
16640;SDS011;8434;47.990;7.880;2023-12-29T17:05:53;1.67;;;1.30;;
16640;SDS011;8434;47.990;7.880;2023-12-29T17:08:39;1.73;;;1.40;;